sensor_id;sensor_type;location;lat;lon;timestamp;P1;durP1;ratioP1;P2;durP2;ratioP2
16775;SDS011;8505;49.456;8.164;2023-02-08T00:01:05;26.25;;;12.75;;
16775;SDS011;8505;49.456;8.164;2023-02-08T00:03:34;22.55;;;12.27;;
16775;SDS011;8505;49.456;8.164;2023-02-08T00:06:02;23.52;;;11.88;;
16775;SDS011;8505;49.456;8.164;2023-02-08T00:08:30;21.02;;;10.93;;
16775;SDS011;8505;49.456;8.164;2023-02-08T00:10:59;23.58;;;11.40;;
16775;SDS011;8505;49.456;8.164;2023-02-08T00:13:27;22.25;;;11.00;;
16775;SDS011;8505;49.456;8.164;2023-02-08T00:15:56;22.42;;;11.20;;
16775;SDS011;8505;49.456;8.164;2023-02-08T00:18:24;21.80;;;10.82;;
16775;SDS011;8505;49.456;8.164;2023-02-08T00:20:52;20.58;;;10.52;;
16775;SDS011;8505;49.456;8.164;2023-02-08T00:23:22;21.05;;;10.50;;
16775;SDS011;8505;49.456;8.164;2023-02-08T00:25:50;21.90;;;10.05;;
16775;SDS011;8505;49.456;8.164;2023-02-08T00:28:18;21.52;;;10.63;;
16775;SDS011;8505;49.456;8.164;2023-02-08T00:30:46;20.73;;;11.00;;
16775;SDS011;8505;49.456;8.164;2023-02-08T00:33:16;19.85;;;10.80;;
16775;SDS011;8505;49.456;8.164;2023-02-08T00:35:43;20.13;;;10.35;;
16775;SDS011;8505;49.456;8.164;2023-02-08T00:38:11;22.95;;;11.35;;
16775;SDS011;8505;49.456;8.164;2023-02-08T00:40:39;21.10;;;10.57;;
16775;SDS011;8505;49.456;8.164;2023-02-08T00:43:07;20.00;;;10.63;;
16775;SDS011;8505;49.456;8.164;2023-02-08T00:45:35;22.02;;;11.05;;
16775;SDS011;8505;49.456;8.164;2023-02-08T00:48:02;19.38;;;10.30;;
16775;SDS011;8505;49.456;8.164;2023-02-08T00:50:32;18.20;;;9.43;;
16775;SDS011;8505;49.456;8.164;2023-02-08T00:52:59;20.20;;;9.85;;
16775;SDS011;8505;49.456;8.164;2023-02-08T00:55:27;18.50;;;9.60;;
16775;SDS011;8505;49.456;8.164;2023-02-08T00:57:54;17.10;;;9.20;;
16775;SDS011;8505;49.456;8.164;2023-02-08T01:00:22;18.50;;;10.00;;
16775;SDS011;8505;49.456;8.164;2023-02-08T01:02:50;18.13;;;9.87;;
16775;SDS011;8505;49.456;8.164;2023-02-08T01:05:17;20.00;;;10.30;;
16775;SDS011;8505;49.456;8.164;2023-02-08T01:07:46;19.48;;;10.13;;
16775;SDS011;8505;49.456;8.164;2023-02-08T01:10:14;19.33;;;10.38;;
16775;SDS011;8505;49.456;8.164;2023-02-08T01:12:42;21.13;;;10.30;;
16775;SDS011;8505;49.456;8.164;2023-02-08T01:15:09;20.55;;;10.68;;
16775;SDS011;8505;49.456;8.164;2023-02-08T01:17:37;20.00;;;10.55;;
16775;SDS011;8505;49.456;8.164;2023-02-08T01:20:05;21.10;;;10.40;;
16775;SDS011;8505;49.456;8.164;2023-02-08T01:22:33;22.08;;;10.45;;
16775;SDS011;8505;49.456;8.164;2023-02-08T01:25:02;20.37;;;10.40;;
16775;SDS011;8505;49.456;8.164;2023-02-08T01:27:30;19.67;;;10.25;;
16775;SDS011;8505;49.456;8.164;2023-02-08T01:29:58;18.02;;;9.75;;
16775;SDS011;8505;49.456;8.164;2023-02-08T01:32:25;18.05;;;9.60;;
16775;SDS011;8505;49.456;8.164;2023-02-08T01:34:53;19.90;;;9.82;;
16775;SDS011;8505;49.456;8.164;2023-02-08T01:37:20;18.42;;;9.43;;
16775;SDS011;8505;49.456;8.164;2023-02-08T01:39:48;19.92;;;9.95;;
16775;SDS011;8505;49.456;8.164;2023-02-08T01:42:17;18.23;;;9.57;;
16775;SDS011;8505;49.456;8.164;2023-02-08T01:47:55;18.48;;;9.80;;
16775;SDS011;8505;49.456;8.164;2023-02-08T01:50:28;19.75;;;9.77;;
16775;SDS011;8505;49.456;8.164;2023-02-08T01:52:58;17.13;;;9.10;;
16775;SDS011;8505;49.456;8.164;2023-02-08T01:55:27;18.47;;;9.70;;
16775;SDS011;8505;49.456;8.164;2023-02-08T01:58:00;17.75;;;9.77;;
16775;SDS011;8505;49.456;8.164;2023-02-08T02:00:32;16.25;;;8.60;;
16775;SDS011;8505;49.456;8.164;2023-02-08T02:03:00;18.30;;;9.23;;
16775;SDS011;8505;49.456;8.164;2023-02-08T02:05:31;19.48;;;9.27;;
16775;SDS011;8505;49.456;8.164;2023-02-08T02:08:04;17.92;;;9.07;;
16775;SDS011;8505;49.456;8.164;2023-02-08T02:10:33;19.58;;;10.18;;
16775;SDS011;8505;49.456;8.164;2023-02-08T02:13:05;19.05;;;9.20;;
16775;SDS011;8505;49.456;8.164;2023-02-08T02:15:34;19.00;;;9.35;;
16775;SDS011;8505;49.456;8.164;2023-02-08T02:18:02;17.35;;;9.50;;
16775;SDS011;8505;49.456;8.164;2023-02-08T02:20:42;20.83;;;9.70;;
16775;SDS011;8505;49.456;8.164;2023-02-08T02:26:50;19.08;;;9.30;;
16775;SDS011;8505;49.456;8.164;2023-02-08T02:29:45;17.70;;;9.25;;
16775;SDS011;8505;49.456;8.164;2023-02-08T02:32:35;19.23;;;10.07;;
16775;SDS011;8505;49.456;8.164;2023-02-08T02:35:11;19.25;;;9.55;;
16775;SDS011;8505;49.456;8.164;2023-02-08T02:37:46;17.70;;;9.52;;
16775;SDS011;8505;49.456;8.164;2023-02-08T02:40:24;22.20;;;10.30;;
16775;SDS011;8505;49.456;8.164;2023-02-08T02:42:58;19.85;;;9.77;;
16775;SDS011;8505;49.456;8.164;2023-02-08T02:45:54;17.77;;;9.20;;
16775;SDS011;8505;49.456;8.164;2023-02-08T02:48:31;17.73;;;9.15;;
16775;SDS011;8505;49.456;8.164;2023-02-08T02:51:07;16.67;;;8.53;;
16775;SDS011;8505;49.456;8.164;2023-02-08T02:53:40;19.27;;;9.35;;
16775;SDS011;8505;49.456;8.164;2023-02-08T02:56:15;17.35;;;9.35;;
16775;SDS011;8505;49.456;8.164;2023-02-08T02:58:46;19.95;;;9.48;;
16775;SDS011;8505;49.456;8.164;2023-02-08T03:01:14;17.83;;;9.27;;
16775;SDS011;8505;49.456;8.164;2023-02-08T03:03:53;18.77;;;9.02;;
16775;SDS011;8505;49.456;8.164;2023-02-08T03:06:22;18.60;;;9.02;;
16775;SDS011;8505;49.456;8.164;2023-02-08T03:09:02;19.02;;;9.30;;
16775;SDS011;8505;49.456;8.164;2023-02-08T03:11:41;19.70;;;9.23;;
16775;SDS011;8505;49.456;8.164;2023-02-08T03:14:19;19.10;;;9.48;;
16775;SDS011;8505;49.456;8.164;2023-02-08T03:16:59;18.13;;;9.18;;
16775;SDS011;8505;49.456;8.164;2023-02-08T03:19:51;18.77;;;9.35;;
16775;SDS011;8505;49.456;8.164;2023-02-08T03:22:29;16.90;;;9.27;;
16775;SDS011;8505;49.456;8.164;2023-02-08T03:25:06;19.65;;;9.20;;
16775;SDS011;8505;49.456;8.164;2023-02-08T03:27:39;18.08;;;8.88;;
16775;SDS011;8505;49.456;8.164;2023-02-08T03:30:15;19.30;;;9.80;;
16775;SDS011;8505;49.456;8.164;2023-02-08T03:32:49;17.08;;;9.10;;
16775;SDS011;8505;49.456;8.164;2023-02-08T03:35:24;17.10;;;9.20;;
16775;SDS011;8505;49.456;8.164;2023-02-08T03:37:54;18.25;;;9.05;;
16775;SDS011;8505;49.456;8.164;2023-02-08T03:40:26;17.23;;;8.55;;
16775;SDS011;8505;49.456;8.164;2023-02-08T03:42:59;17.42;;;9.05;;
16775;SDS011;8505;49.456;8.164;2023-02-08T03:45:31;17.15;;;8.77;;
16775;SDS011;8505;49.456;8.164;2023-02-08T03:48:01;17.30;;;8.63;;
16775;SDS011;8505;49.456;8.164;2023-02-08T03:50:34;18.10;;;9.27;;
16775;SDS011;8505;49.456;8.164;2023-02-08T03:53:04;16.98;;;8.90;;
16775;SDS011;8505;49.456;8.164;2023-02-08T03:55:34;16.80;;;8.55;;
16775;SDS011;8505;49.456;8.164;2023-02-08T03:58:04;16.50;;;8.20;;
16775;SDS011;8505;49.456;8.164;2023-02-08T04:00:35;17.55;;;8.95;;
16775;SDS011;8505;49.456;8.164;2023-02-08T04:03:07;17.60;;;8.73;;
16775;SDS011;8505;49.456;8.164;2023-02-08T04:05:40;19.05;;;9.48;;
16775;SDS011;8505;49.456;8.164;2023-02-08T04:08:09;17.70;;;8.85;;
16775;SDS011;8505;49.456;8.164;2023-02-08T04:10:36;16.23;;;8.73;;
16775;SDS011;8505;49.456;8.164;2023-02-08T04:13:05;16.95;;;8.65;;
16775;SDS011;8505;49.456;8.164;2023-02-08T04:15:32;18.05;;;8.68;;
16775;SDS011;8505;49.456;8.164;2023-02-08T04:18:00;17.30;;;8.75;;
16775;SDS011;8505;49.456;8.164;2023-02-08T04:20:28;18.23;;;8.87;;
16775;SDS011;8505;49.456;8.164;2023-02-08T04:22:57;16.50;;;9.10;;
16775;SDS011;8505;49.456;8.164;2023-02-08T04:25:24;16.90;;;9.10;;
16775;SDS011;8505;49.456;8.164;2023-02-08T04:27:52;20.33;;;9.23;;
16775;SDS011;8505;49.456;8.164;2023-02-08T04:30:20;17.53;;;9.20;;
16775;SDS011;8505;49.456;8.164;2023-02-08T04:32:47;18.30;;;9.02;;
16775;SDS011;8505;49.456;8.164;2023-02-08T04:35:15;17.45;;;8.98;;
16775;SDS011;8505;49.456;8.164;2023-02-08T04:37:43;17.98;;;8.55;;
16775;SDS011;8505;49.456;8.164;2023-02-08T04:40:12;18.05;;;9.05;;
16775;SDS011;8505;49.456;8.164;2023-02-08T04:42:39;19.33;;;9.65;;
16775;SDS011;8505;49.456;8.164;2023-02-08T04:45:07;17.55;;;8.68;;
16775;SDS011;8505;49.456;8.164;2023-02-08T04:47:36;17.98;;;8.63;;
16775;SDS011;8505;49.456;8.164;2023-02-08T04:50:04;17.38;;;9.23;;
16775;SDS011;8505;49.456;8.164;2023-02-08T04:52:32;17.10;;;9.00;;
16775;SDS011;8505;49.456;8.164;2023-02-08T04:54:59;16.98;;;8.60;;
16775;SDS011;8505;49.456;8.164;2023-02-08T04:57:28;18.80;;;9.00;;
16775;SDS011;8505;49.456;8.164;2023-02-08T04:59:56;18.58;;;9.75;;
16775;SDS011;8505;49.456;8.164;2023-02-08T05:02:25;17.17;;;8.85;;
16775;SDS011;8505;49.456;8.164;2023-02-08T05:04:53;19.27;;;9.03;;
16775;SDS011;8505;49.456;8.164;2023-02-08T05:07:21;18.95;;;9.43;;
16775;SDS011;8505;49.456;8.164;2023-02-08T05:09:48;17.40;;;9.73;;
16775;SDS011;8505;49.456;8.164;2023-02-08T05:12:16;18.65;;;9.07;;
16775;SDS011;8505;49.456;8.164;2023-02-08T05:14:45;18.60;;;9.63;;
16775;SDS011;8505;49.456;8.164;2023-02-08T05:17:13;19.35;;;9.30;;
16775;SDS011;8505;49.456;8.164;2023-02-08T05:19:40;18.48;;;9.38;;
16775;SDS011;8505;49.456;8.164;2023-02-08T05:22:08;18.92;;;9.77;;
16775;SDS011;8505;49.456;8.164;2023-02-08T05:24:35;18.70;;;9.73;;
16775;SDS011;8505;49.456;8.164;2023-02-08T05:27:03;17.17;;;9.02;;
16775;SDS011;8505;49.456;8.164;2023-02-08T05:29:30;18.35;;;9.38;;
16775;SDS011;8505;49.456;8.164;2023-02-08T05:31:59;19.92;;;9.93;;
16775;SDS011;8505;49.456;8.164;2023-02-08T05:34:27;19.90;;;8.90;;
16775;SDS011;8505;49.456;8.164;2023-02-08T05:36:55;19.63;;;9.15;;
16775;SDS011;8505;49.456;8.164;2023-02-08T05:39:22;18.17;;;9.32;;
16775;SDS011;8505;49.456;8.164;2023-02-08T05:41:50;18.60;;;9.40;;
16775;SDS011;8505;49.456;8.164;2023-02-08T05:44:18;17.20;;;8.98;;
16775;SDS011;8505;49.456;8.164;2023-02-08T05:46:45;18.63;;;9.65;;
16775;SDS011;8505;49.456;8.164;2023-02-08T05:49:14;19.40;;;10.20;;
16775;SDS011;8505;49.456;8.164;2023-02-08T05:51:42;17.33;;;8.77;;
16775;SDS011;8505;49.456;8.164;2023-02-08T05:54:10;18.92;;;8.95;;
16775;SDS011;8505;49.456;8.164;2023-02-08T05:56:38;17.23;;;9.27;;
16775;SDS011;8505;49.456;8.164;2023-02-08T05:59:05;18.77;;;8.93;;
16775;SDS011;8505;49.456;8.164;2023-02-08T06:01:33;17.63;;;8.98;;
16775;SDS011;8505;49.456;8.164;2023-02-08T06:04:01;19.63;;;9.20;;
16775;SDS011;8505;49.456;8.164;2023-02-08T06:06:30;20.33;;;10.30;;
16775;SDS011;8505;49.456;8.164;2023-02-08T06:08:57;24.63;;;11.73;;
16775;SDS011;8505;49.456;8.164;2023-02-08T06:11:25;23.83;;;12.82;;
16775;SDS011;8505;49.456;8.164;2023-02-08T06:13:53;26.95;;;13.95;;
16775;SDS011;8505;49.456;8.164;2023-02-08T06:16:20;23.67;;;11.95;;
16775;SDS011;8505;49.456;8.164;2023-02-08T06:18:48;61.03;;;23.10;;
16775;SDS011;8505;49.456;8.164;2023-02-08T06:21:16;41.30;;;18.48;;
16775;SDS011;8505;49.456;8.164;2023-02-08T06:23:45;24.13;;;12.25;;
16775;SDS011;8505;49.456;8.164;2023-02-08T06:26:12;25.42;;;11.93;;
16775;SDS011;8505;49.456;8.164;2023-02-08T06:28:40;20.27;;;10.60;;
16775;SDS011;8505;49.456;8.164;2023-02-08T06:31:07;20.93;;;11.47;;
16775;SDS011;8505;49.456;8.164;2023-02-08T06:33:35;21.77;;;11.00;;
16775;SDS011;8505;49.456;8.164;2023-02-08T06:36:02;19.70;;;10.60;;
16775;SDS011;8505;49.456;8.164;2023-02-08T06:38:30;18.25;;;9.05;;
16775;SDS011;8505;49.456;8.164;2023-02-08T06:40:59;18.50;;;9.25;;
16775;SDS011;8505;49.456;8.164;2023-02-08T06:43:27;18.73;;;9.83;;
16775;SDS011;8505;49.456;8.164;2023-02-08T06:45:54;18.10;;;8.88;;
16775;SDS011;8505;49.456;8.164;2023-02-08T06:48:22;17.42;;;9.38;;
16775;SDS011;8505;49.456;8.164;2023-02-08T06:50:50;17.85;;;8.45;;
16775;SDS011;8505;49.456;8.164;2023-02-08T06:53:18;18.13;;;9.05;;
16775;SDS011;8505;49.456;8.164;2023-02-08T06:55:47;18.77;;;9.30;;
16775;SDS011;8505;49.456;8.164;2023-02-08T06:58:16;18.67;;;8.95;;
16775;SDS011;8505;49.456;8.164;2023-02-08T07:00:44;18.45;;;9.82;;
16775;SDS011;8505;49.456;8.164;2023-02-08T07:03:13;18.80;;;9.77;;
16775;SDS011;8505;49.456;8.164;2023-02-08T07:05:42;17.92;;;9.50;;
16775;SDS011;8505;49.456;8.164;2023-02-08T07:08:29;21.90;;;10.77;;
16775;SDS011;8505;49.456;8.164;2023-02-08T07:10:57;22.50;;;11.48;;
16775;SDS011;8505;49.456;8.164;2023-02-08T07:13:26;20.52;;;10.18;;
16775;SDS011;8505;49.456;8.164;2023-02-08T07:15:53;19.35;;;10.27;;
16775;SDS011;8505;49.456;8.164;2023-02-08T07:18:21;20.77;;;9.73;;
16775;SDS011;8505;49.456;8.164;2023-02-08T07:20:48;19.92;;;10.27;;
16775;SDS011;8505;49.456;8.164;2023-02-08T07:23:16;17.15;;;9.40;;
16775;SDS011;8505;49.456;8.164;2023-02-08T07:25:44;20.05;;;10.50;;
16775;SDS011;8505;49.456;8.164;2023-02-08T07:28:11;18.90;;;10.00;;
16775;SDS011;8505;49.456;8.164;2023-02-08T07:30:40;19.75;;;10.05;;
16775;SDS011;8505;49.456;8.164;2023-02-08T07:33:08;19.75;;;9.80;;
16775;SDS011;8505;49.456;8.164;2023-02-08T07:35:36;17.50;;;9.38;;
16775;SDS011;8505;49.456;8.164;2023-02-08T07:38:03;16.53;;;8.80;;
16775;SDS011;8505;49.456;8.164;2023-02-08T07:40:31;17.15;;;8.65;;
16775;SDS011;8505;49.456;8.164;2023-02-08T07:42:59;16.77;;;9.15;;
16775;SDS011;8505;49.456;8.164;2023-02-08T07:45:26;15.75;;;8.55;;
16775;SDS011;8505;49.456;8.164;2023-02-08T07:47:55;18.95;;;9.10;;
16775;SDS011;8505;49.456;8.164;2023-02-08T07:50:23;15.90;;;8.00;;
16775;SDS011;8505;49.456;8.164;2023-02-08T07:52:51;16.52;;;8.55;;
16775;SDS011;8505;49.456;8.164;2023-02-08T07:55:18;18.20;;;8.57;;
16775;SDS011;8505;49.456;8.164;2023-02-08T07:57:47;16.88;;;8.63;;
16775;SDS011;8505;49.456;8.164;2023-02-08T08:00:16;14.95;;;8.18;;
16775;SDS011;8505;49.456;8.164;2023-02-08T08:02:44;15.25;;;8.43;;
16775;SDS011;8505;49.456;8.164;2023-02-08T08:05:17;16.42;;;8.82;;
16775;SDS011;8505;49.456;8.164;2023-02-08T08:07:44;17.85;;;9.05;;
16775;SDS011;8505;49.456;8.164;2023-02-08T08:10:12;16.67;;;8.40;;
16775;SDS011;8505;49.456;8.164;2023-02-08T08:12:40;18.05;;;9.25;;
16775;SDS011;8505;49.456;8.164;2023-02-08T08:15:07;18.27;;;9.30;;
16775;SDS011;8505;49.456;8.164;2023-02-08T08:17:35;16.98;;;9.10;;
16775;SDS011;8505;49.456;8.164;2023-02-08T08:20:04;20.10;;;9.57;;
16775;SDS011;8505;49.456;8.164;2023-02-08T08:22:34;19.20;;;9.82;;
16775;SDS011;8505;49.456;8.164;2023-02-08T08:25:02;17.65;;;8.90;;
16775;SDS011;8505;49.456;8.164;2023-02-08T08:27:29;14.52;;;8.13;;
16775;SDS011;8505;49.456;8.164;2023-02-08T08:29:57;16.20;;;8.27;;
16775;SDS011;8505;49.456;8.164;2023-02-08T08:32:25;20.75;;;9.82;;
16775;SDS011;8505;49.456;8.164;2023-02-08T08:34:53;17.17;;;9.38;;
16775;SDS011;8505;49.456;8.164;2023-02-08T08:37:20;18.27;;;9.43;;
16775;SDS011;8505;49.456;8.164;2023-02-08T08:39:49;18.15;;;9.38;;
16775;SDS011;8505;49.456;8.164;2023-02-08T08:42:17;19.17;;;9.38;;
16775;SDS011;8505;49.456;8.164;2023-02-08T08:44:46;22.23;;;10.27;;
16775;SDS011;8505;49.456;8.164;2023-02-08T08:47:13;20.63;;;10.65;;
16775;SDS011;8505;49.456;8.164;2023-02-08T08:49:41;21.42;;;10.90;;
16775;SDS011;8505;49.456;8.164;2023-02-08T08:52:09;22.17;;;11.33;;
16775;SDS011;8505;49.456;8.164;2023-02-08T08:54:37;20.45;;;10.80;;
16775;SDS011;8505;49.456;8.164;2023-02-08T08:57:06;20.08;;;10.95;;
16775;SDS011;8505;49.456;8.164;2023-02-08T08:59:34;21.58;;;11.43;;
16775;SDS011;8505;49.456;8.164;2023-02-08T09:02:01;19.52;;;11.05;;
16775;SDS011;8505;49.456;8.164;2023-02-08T09:04:29;19.55;;;10.93;;
16775;SDS011;8505;49.456;8.164;2023-02-08T09:06:57;19.77;;;11.10;;
16775;SDS011;8505;49.456;8.164;2023-02-08T09:09:25;20.58;;;12.15;;
16775;SDS011;8505;49.456;8.164;2023-02-08T09:11:52;18.40;;;10.47;;
16775;SDS011;8505;49.456;8.164;2023-02-08T09:14:21;19.10;;;10.80;;
16775;SDS011;8505;49.456;8.164;2023-02-08T09:16:49;18.25;;;10.15;;
16775;SDS011;8505;49.456;8.164;2023-02-08T09:19:17;20.25;;;10.98;;
16775;SDS011;8505;49.456;8.164;2023-02-08T09:21:45;19.77;;;10.50;;
16775;SDS011;8505;49.456;8.164;2023-02-08T09:24:13;18.40;;;10.43;;
16775;SDS011;8505;49.456;8.164;2023-02-08T09:26:42;20.83;;;10.95;;
16775;SDS011;8505;49.456;8.164;2023-02-08T09:29:10;19.50;;;10.82;;
16775;SDS011;8505;49.456;8.164;2023-02-08T09:31:40;18.35;;;10.55;;
16775;SDS011;8505;49.456;8.164;2023-02-08T09:34:08;18.48;;;10.82;;
16775;SDS011;8505;49.456;8.164;2023-02-08T09:36:36;18.25;;;10.90;;
16775;SDS011;8505;49.456;8.164;2023-02-08T09:39:07;20.40;;;11.65;;
16775;SDS011;8505;49.456;8.164;2023-02-08T09:41:54;17.98;;;10.10;;
16775;SDS011;8505;49.456;8.164;2023-02-08T09:44:37;19.23;;;10.48;;
16775;SDS011;8505;49.456;8.164;2023-02-08T09:47:15;19.35;;;10.95;;
16775;SDS011;8505;49.456;8.164;2023-02-08T09:49:50;20.57;;;10.93;;
16775;SDS011;8505;49.456;8.164;2023-02-08T09:52:25;30.13;;;12.55;;
16775;SDS011;8505;49.456;8.164;2023-02-08T09:54:58;19.40;;;11.18;;
16775;SDS011;8505;49.456;8.164;2023-02-08T09:57:30;22.55;;;11.75;;
16775;SDS011;8505;49.456;8.164;2023-02-08T10:00:02;29.60;;;15.27;;
16775;SDS011;8505;49.456;8.164;2023-02-08T10:02:38;29.73;;;15.20;;
16775;SDS011;8505;49.456;8.164;2023-02-08T10:05:09;23.02;;;12.30;;
16775;SDS011;8505;49.456;8.164;2023-02-08T10:07:39;17.25;;;10.07;;
16775;SDS011;8505;49.456;8.164;2023-02-08T10:10:11;17.75;;;10.48;;
16775;SDS011;8505;49.456;8.164;2023-02-08T10:12:42;18.33;;;9.82;;
16775;SDS011;8505;49.456;8.164;2023-02-08T10:15:20;19.83;;;10.45;;
16775;SDS011;8505;49.456;8.164;2023-02-08T10:18:03;15.98;;;9.80;;
16775;SDS011;8505;49.456;8.164;2023-02-08T10:20:47;18.90;;;10.15;;
16775;SDS011;8505;49.456;8.164;2023-02-08T10:23:36;15.20;;;9.60;;
16775;SDS011;8505;49.456;8.164;2023-02-08T10:26:19;17.55;;;9.93;;
16775;SDS011;8505;49.456;8.164;2023-02-08T10:29:11;16.35;;;9.60;;
16775;SDS011;8505;49.456;8.164;2023-02-08T10:32:04;17.17;;;9.65;;
16775;SDS011;8505;49.456;8.164;2023-02-08T10:34:51;17.73;;;9.60;;
16775;SDS011;8505;49.456;8.164;2023-02-08T10:37:24;16.58;;;9.40;;
16775;SDS011;8505;49.456;8.164;2023-02-08T10:39:57;15.73;;;9.43;;
16775;SDS011;8505;49.456;8.164;2023-02-08T10:42:31;15.23;;;9.15;;
16775;SDS011;8505;49.456;8.164;2023-02-08T10:45:01;14.68;;;8.77;;
16775;SDS011;8505;49.456;8.164;2023-02-08T10:47:50;15.80;;;9.57;;
16775;SDS011;8505;49.456;8.164;2023-02-08T10:50:23;14.88;;;9.20;;
16775;SDS011;8505;49.456;8.164;2023-02-08T10:53:00;13.27;;;9.13;;
16775;SDS011;8505;49.456;8.164;2023-02-08T10:55:28;15.02;;;9.27;;
16775;SDS011;8505;49.456;8.164;2023-02-08T10:57:58;13.87;;;9.23;;
16775;SDS011;8505;49.456;8.164;2023-02-08T11:00:27;14.33;;;9.17;;
16775;SDS011;8505;49.456;8.164;2023-02-08T11:02:59;15.05;;;9.27;;
16775;SDS011;8505;49.456;8.164;2023-02-08T11:05:32;14.25;;;9.13;;
16775;SDS011;8505;49.456;8.164;2023-02-08T11:08:05;14.15;;;9.00;;
16775;SDS011;8505;49.456;8.164;2023-02-08T11:10:35;14.88;;;9.20;;
16775;SDS011;8505;49.456;8.164;2023-02-08T11:13:04;15.25;;;9.07;;
16775;SDS011;8505;49.456;8.164;2023-02-08T11:19:03;18.38;;;10.30;;
16775;SDS011;8505;49.456;8.164;2023-02-08T11:21:35;15.27;;;9.30;;
16775;SDS011;8505;49.456;8.164;2023-02-08T11:24:05;16.33;;;9.43;;
16775;SDS011;8505;49.456;8.164;2023-02-08T11:26:52;15.15;;;9.50;;
16775;SDS011;8505;49.456;8.164;2023-02-08T11:29:22;14.73;;;8.73;;
16775;SDS011;8505;49.456;8.164;2023-02-08T11:31:56;15.43;;;8.67;;
16775;SDS011;8505;49.456;8.164;2023-02-08T11:34:27;14.93;;;9.30;;
16775;SDS011;8505;49.456;8.164;2023-02-08T11:37:00;17.45;;;11.10;;
16775;SDS011;8505;49.456;8.164;2023-02-08T11:39:31;12.63;;;8.45;;
16775;SDS011;8505;49.456;8.164;2023-02-08T11:42:03;14.63;;;8.73;;
16775;SDS011;8505;49.456;8.164;2023-02-08T11:44:32;15.25;;;8.90;;
16775;SDS011;8505;49.456;8.164;2023-02-08T11:47:03;13.70;;;8.80;;
16775;SDS011;8505;49.456;8.164;2023-02-08T11:49:35;17.20;;;9.07;;
16775;SDS011;8505;49.456;8.164;2023-02-08T11:52:06;15.80;;;8.75;;
16775;SDS011;8505;49.456;8.164;2023-02-08T11:54:51;13.93;;;8.60;;
16775;SDS011;8505;49.456;8.164;2023-02-08T11:57:20;14.63;;;8.90;;
16775;SDS011;8505;49.456;8.164;2023-02-08T11:59:50;16.42;;;9.13;;
16775;SDS011;8505;49.456;8.164;2023-02-08T12:02:37;13.80;;;7.97;;
16775;SDS011;8505;49.456;8.164;2023-02-08T12:05:09;15.73;;;8.30;;
16775;SDS011;8505;49.456;8.164;2023-02-08T12:07:44;14.93;;;8.67;;
16775;SDS011;8505;49.456;8.164;2023-02-08T12:10:34;14.98;;;8.38;;
16775;SDS011;8505;49.456;8.164;2023-02-08T12:13:27;14.18;;;8.40;;
16775;SDS011;8505;49.456;8.164;2023-02-08T12:16:09;13.73;;;8.95;;
16775;SDS011;8505;49.456;8.164;2023-02-08T12:18:49;15.93;;;9.77;;
16775;SDS011;8505;49.456;8.164;2023-02-08T12:21:27;16.65;;;10.02;;
16775;SDS011;8505;49.456;8.164;2023-02-08T12:24:05;16.60;;;10.38;;
16775;SDS011;8505;49.456;8.164;2023-02-08T12:26:44;19.80;;;10.80;;
16775;SDS011;8505;49.456;8.164;2023-02-08T12:29:31;15.73;;;9.98;;
16775;SDS011;8505;49.456;8.164;2023-02-08T12:32:22;16.35;;;9.70;;
16775;SDS011;8505;49.456;8.164;2023-02-08T12:35:07;15.43;;;9.85;;
16775;SDS011;8505;49.456;8.164;2023-02-08T12:38:05;15.00;;;9.40;;
16775;SDS011;8505;49.456;8.164;2023-02-08T12:41:03;14.45;;;8.98;;
16775;SDS011;8505;49.456;8.164;2023-02-08T12:43:40;15.25;;;9.45;;
16775;SDS011;8505;49.456;8.164;2023-02-08T12:46:19;15.20;;;9.13;;
16775;SDS011;8505;49.456;8.164;2023-02-08T12:49:00;14.57;;;9.30;;
16775;SDS011;8505;49.456;8.164;2023-02-08T12:51:42;15.10;;;9.10;;
16775;SDS011;8505;49.456;8.164;2023-02-08T13:22:51;14.73;;;8.93;;
16775;SDS011;8505;49.456;8.164;2023-02-08T13:25:23;13.73;;;8.88;;
16775;SDS011;8505;49.456;8.164;2023-02-08T13:27:58;15.27;;;9.30;;
16775;SDS011;8505;49.456;8.164;2023-02-08T13:30:27;15.23;;;9.25;;
16775;SDS011;8505;49.456;8.164;2023-02-08T13:32:55;15.32;;;9.48;;
16775;SDS011;8505;49.456;8.164;2023-02-08T13:35:25;14.80;;;8.67;;
16775;SDS011;8505;49.456;8.164;2023-02-08T13:37:59;13.88;;;8.57;;
16775;SDS011;8505;49.456;8.164;2023-02-08T13:40:29;13.38;;;8.40;;
16775;SDS011;8505;49.456;8.164;2023-02-08T13:43:01;15.20;;;8.50;;
16775;SDS011;8505;49.456;8.164;2023-02-08T13:45:31;16.40;;;9.20;;
16775;SDS011;8505;49.456;8.164;2023-02-08T13:48:03;15.20;;;9.30;;
16775;SDS011;8505;49.456;8.164;2023-02-08T13:50:40;17.08;;;9.93;;
16775;SDS011;8505;49.456;8.164;2023-02-08T13:53:14;14.50;;;8.87;;
16775;SDS011;8505;49.456;8.164;2023-02-08T14:01:26;13.30;;;8.73;;
16775;SDS011;8505;49.456;8.164;2023-02-08T14:07:01;14.83;;;9.10;;
16775;SDS011;8505;49.456;8.164;2023-02-08T14:09:40;15.60;;;8.98;;
16775;SDS011;8505;49.456;8.164;2023-02-08T14:12:15;14.45;;;8.45;;
16775;SDS011;8505;49.456;8.164;2023-02-08T14:15:05;14.87;;;9.00;;
16775;SDS011;8505;49.456;8.164;2023-02-08T14:17:48;15.57;;;9.38;;
16775;SDS011;8505;49.456;8.164;2023-02-08T14:20:23;21.13;;;9.70;;
16775;SDS011;8505;49.456;8.164;2023-02-08T14:22:56;16.57;;;9.03;;
16775;SDS011;8505;49.456;8.164;2023-02-08T14:25:28;15.77;;;9.25;;
16775;SDS011;8505;49.456;8.164;2023-02-08T14:28:04;15.07;;;9.13;;
16775;SDS011;8505;49.456;8.164;2023-02-08T14:30:34;16.33;;;9.15;;
16775;SDS011;8505;49.456;8.164;2023-02-08T14:33:08;15.30;;;8.67;;
16775;SDS011;8505;49.456;8.164;2023-02-08T14:35:39;17.08;;;10.48;;
16775;SDS011;8505;49.456;8.164;2023-02-08T14:38:30;15.85;;;9.40;;
16775;SDS011;8505;49.456;8.164;2023-02-08T14:50:19;15.98;;;8.98;;
16775;SDS011;8505;49.456;8.164;2023-02-08T14:52:51;17.25;;;9.63;;
16775;SDS011;8505;49.456;8.164;2023-02-08T14:55:26;14.97;;;9.17;;
16775;SDS011;8505;49.456;8.164;2023-02-08T14:57:58;15.95;;;9.43;;
16775;SDS011;8505;49.456;8.164;2023-02-08T15:00:28;15.73;;;8.77;;
16775;SDS011;8505;49.456;8.164;2023-02-08T15:03:00;14.40;;;8.80;;
16775;SDS011;8505;49.456;8.164;2023-02-08T15:05:32;14.60;;;8.50;;
16775;SDS011;8505;49.456;8.164;2023-02-08T15:08:04;15.35;;;9.00;;
16775;SDS011;8505;49.456;8.164;2023-02-08T15:10:32;14.23;;;8.90;;
16775;SDS011;8505;49.456;8.164;2023-02-08T15:13:03;15.77;;;9.07;;
16775;SDS011;8505;49.456;8.164;2023-02-08T15:15:34;15.32;;;8.98;;
16775;SDS011;8505;49.456;8.164;2023-02-08T15:18:05;13.63;;;8.68;;
16775;SDS011;8505;49.456;8.164;2023-02-08T15:20:44;14.88;;;8.70;;
16775;SDS011;8505;49.456;8.164;2023-02-08T15:23:22;19.38;;;10.43;;
16775;SDS011;8505;49.456;8.164;2023-02-08T15:25:53;17.65;;;10.50;;
16775;SDS011;8505;49.456;8.164;2023-02-08T15:28:24;16.25;;;10.05;;
16775;SDS011;8505;49.456;8.164;2023-02-08T15:30:55;18.50;;;9.50;;
16775;SDS011;8505;49.456;8.164;2023-02-08T15:33:25;16.77;;;9.30;;
16775;SDS011;8505;49.456;8.164;2023-02-08T15:35:57;16.10;;;8.75;;
16775;SDS011;8505;49.456;8.164;2023-02-08T15:38:26;16.67;;;9.73;;
16775;SDS011;8505;49.456;8.164;2023-02-08T15:40:59;15.77;;;9.18;;
16775;SDS011;8505;49.456;8.164;2023-02-08T15:43:33;18.23;;;9.77;;
16775;SDS011;8505;49.456;8.164;2023-02-08T15:46:03;18.02;;;10.15;;
16775;SDS011;8505;49.456;8.164;2023-02-08T15:48:33;20.58;;;10.70;;
16775;SDS011;8505;49.456;8.164;2023-02-08T15:51:05;24.48;;;13.40;;
16775;SDS011;8505;49.456;8.164;2023-02-08T15:53:36;32.50;;;16.80;;
16775;SDS011;8505;49.456;8.164;2023-02-08T15:56:06;23.77;;;12.60;;
16775;SDS011;8505;49.456;8.164;2023-02-08T15:58:39;20.08;;;11.68;;
16775;SDS011;8505;49.456;8.164;2023-02-08T16:01:16;17.63;;;10.07;;
16775;SDS011;8505;49.456;8.164;2023-02-08T16:03:45;18.40;;;10.60;;
16775;SDS011;8505;49.456;8.164;2023-02-08T16:06:19;17.60;;;10.30;;